createdAt,value
2022-12-03T00:00:15.300Z,74.91
2022-12-03T00:01:15.392Z,74.91
2022-12-03T00:02:15.607Z,74.88
2022-12-03T00:03:15.753Z,75.02
2022-12-03T00:04:15.650Z,74.98
2022-12-03T00:05:15.751Z,74.98
2022-12-03T00:06:15.845Z,74.98
2022-12-03T00:07:15.919Z,74.98
2022-12-03T00:08:16.105Z,74.98
2022-12-03T00:09:16.119Z,74.98
2022-12-03T00:10:16.187Z,74.98
2022-12-03T00:11:16.254Z,74.98
2022-12-03T00:12:16.323Z,75.09
2022-12-03T00:13:16.441Z,75.09
2022-12-03T00:14:16.543Z,75.19
2022-12-03T00:15:16.681Z,75.19
2022-12-03T00:16:16.806Z,75.19
2022-12-03T00:17:16.744Z,75.19
2022-12-03T00:18:16.830Z,75.19
2022-12-03T00:19:16.940Z,75.19
2022-12-03T00:20:16.987Z,75.19
2022-12-03T00:21:17.057Z,75.09
2022-12-03T00:22:17.152Z,75.09
2022-12-03T00:23:17.223Z,75.19
2022-12-03T00:24:17.335Z,75.09
2022-12-03T00:25:17.376Z,75.09
2022-12-03T00:26:17.480Z,74.98
2022-12-03T00:27:17.569Z,74.88
2022-12-03T00:28:17.662Z,74.77
2022-12-03T00:29:17.754Z,74.67
2022-12-03T00:30:17.843Z,74.67
2022-12-03T00:31:18.067Z,74.67
2022-12-03T00:32:18.070Z,74.67
2022-12-03T00:33:18.107Z,74.77
2022-12-03T00:34:18.251Z,74.77
2022-12-03T00:35:18.307Z,74.88
2022-12-03T00:36:18.363Z,74.88
2022-12-03T00:37:18.512Z,74.88
2022-12-03T00:38:18.603Z,74.98
2022-12-03T00:39:18.669Z,74.98
2022-12-03T00:40:18.700Z,74.88
2022-12-03T00:41:18.844Z,74.77
2022-12-03T00:42:18.899Z,74.67
2022-12-03T00:43:18.978Z,74.57
2022-12-03T00:44:19.057Z,74.46
2022-12-03T00:45:19.150Z,74.40
2022-12-03T00:46:21.575Z,74.29
2022-12-03T00:47:19.339Z,74.29
2022-12-03T00:48:19.438Z,74.40
2022-12-03T00:49:19.532Z,74.40
2022-12-03T00:50:19.594Z,74.29
2022-12-03T00:51:19.688Z,74.40
2022-12-03T00:52:19.760Z,74.40
2022-12-03T00:53:19.872Z,74.53
2022-12-03T00:54:19.958Z,74.53
2022-12-03T00:55:20.075Z,74.53
2022-12-03T00:56:20.097Z,74.43
2022-12-03T00:57:20.171Z,74.43
2022-12-03T00:58:20.241Z,74.43
2022-12-03T00:59:20.317Z,74.43
2022-12-03T01:00:20.364Z,74.53
2022-12-03T01:01:20.553Z,74.63
2022-12-03T01:02:20.673Z,74.63
2022-12-03T01:03:20.675Z,74.63
2022-12-03T01:04:20.849Z,74.74
2022-12-03T01:05:20.877Z,74.63
2022-12-03T01:06:20.948Z,74.63
2022-12-03T01:07:21.028Z,74.63
2022-12-03T01:08:21.101Z,74.53
2022-12-03T01:09:21.212Z,74.57
2022-12-03T01:10:21.228Z,74.57
2022-12-03T01:11:21.318Z,74.67
2022-12-03T01:12:21.395Z,74.67
2022-12-03T01:13:21.470Z,74.77
2022-12-03T01:14:21.560Z,74.77
2022-12-03T01:15:21.663Z,74.88
2022-12-03T01:16:21.848Z,74.88
2022-12-03T01:17:21.799Z,74.98
2022-12-03T01:18:21.883Z,75.09
2022-12-03T01:19:22.024Z,75.19
2022-12-03T01:20:22.020Z,75.19
2022-12-03T01:21:22.127Z,75.19
2022-12-03T01:22:22.173Z,75.19
2022-12-03T01:23:22.249Z,75.19
2022-12-03T01:24:22.353Z,75.19
2022-12-03T01:25:22.422Z,75.19
2022-12-03T01:26:22.449Z,75.09
2022-12-03T01:27:22.527Z,75.09
2022-12-03T01:28:22.591Z,74.98
2022-12-03T01:29:22.730Z,74.98
2022-12-03T01:30:22.750Z,74.98
2022-12-03T01:31:22.922Z,75.01
2022-12-03T01:32:22.974Z,75.12
2022-12-03T01:33:23.065Z,75.12
2022-12-03T01:34:23.191Z,75.12
2022-12-03T01:35:23.240Z,75.22
2022-12-03T01:36:23.305Z,75.22
2022-12-03T01:37:23.449Z,75.22
2022-12-03T01:38:23.512Z,75.32
2022-12-03T01:39:23.663Z,75.32
2022-12-03T01:40:23.684Z,75.43
2022-12-03T01:41:23.752Z,75.43
2022-12-03T01:42:23.846Z,75.54
2022-12-03T01:43:23.926Z,75.54
2022-12-03T01:44:24.005Z,75.64
2022-12-03T01:45:24.079Z,75.64
2022-12-03T01:46:24.189Z,75.64
2022-12-03T01:47:24.276Z,75.74
2022-12-03T01:48:24.347Z,75.74
2022-12-03T01:49:24.443Z,75.74
2022-12-03T01:50:24.530Z,75.74
2022-12-03T01:51:24.600Z,75.74
2022-12-03T01:52:24.670Z,75.85
2022-12-03T01:53:24.736Z,75.85
2022-12-03T01:54:24.836Z,75.85
2022-12-03T01:55:24.882Z,75.95
2022-12-03T01:56:24.951Z,75.95
2022-12-03T01:57:25.019Z,76.06
2022-12-03T01:58:25.089Z,76.06
2022-12-03T01:59:25.228Z,76.06
2022-12-03T02:00:25.295Z,76.06
2022-12-03T02:01:25.511Z,75.95
2022-12-03T02:02:25.528Z,75.85
2022-12-03T02:03:25.619Z,75.85
2022-12-03T02:04:25.884Z,75.85
2022-12-03T02:05:25.784Z,75.85
2022-12-03T02:06:25.850Z,75.95
2022-12-03T02:07:25.964Z,75.85
2022-12-03T02:08:25.990Z,75.81
2022-12-03T02:09:26.115Z,75.81
2022-12-03T02:10:26.200Z,75.71
2022-12-03T02:11:26.289Z,75.74
2022-12-03T02:12:26.340Z,75.74
2022-12-03T02:13:26.411Z,75.74
2022-12-03T02:14:26.506Z,75.74
2022-12-03T02:15:26.580Z,75.60
2022-12-03T02:16:26.793Z,75.64
2022-12-03T02:17:26.758Z,75.54
2022-12-03T02:18:26.840Z,75.54
2022-12-03T02:19:26.921Z,75.54
2022-12-03T02:20:26.995Z,75.74
2022-12-03T02:21:27.072Z,75.85
2022-12-03T02:22:27.145Z,75.74
2022-12-03T02:23:27.232Z,75.74
2022-12-03T02:24:27.505Z,75.85
2022-12-03T02:25:27.376Z,75.74
2022-12-03T02:26:27.458Z,75.74
2022-12-03T02:27:27.526Z,75.64
2022-12-03T02:28:27.641Z,75.64
2022-12-03T02:29:27.720Z,75.64
2022-12-03T02:30:27.791Z,75.64
2022-12-03T02:31:27.900Z,75.64
2022-12-03T02:32:27.919Z,75.64
2022-12-03T02:33:28.000Z,75.64
2022-12-03T02:34:28.125Z,75.54
2022-12-03T02:35:28.142Z,75.54
2022-12-03T02:36:28.247Z,75.54
2022-12-03T02:37:28.336Z,75.54
2022-12-03T02:38:28.437Z,75.54
2022-12-03T02:39:28.504Z,75.57
2022-12-03T02:40:28.562Z,75.67
2022-12-03T02:41:28.648Z,75.67
2022-12-03T02:44:10.794Z,75.88
2022-12-03T02:45:11.886Z,75.98
2022-12-03T02:46:11.967Z,76.19
2022-12-03T02:47:12.085Z,76.19
2022-12-03T02:48:12.073Z,76.19
2022-12-03T02:49:12.158Z,76.09
2022-12-03T02:50:12.254Z,75.98
2022-12-03T02:51:12.330Z,75.88
2022-12-03T02:52:12.397Z,75.98
2022-12-03T02:53:12.527Z,75.98
2022-12-03T02:54:12.595Z,76.09
2022-12-03T02:55:12.701Z,76.09
2022-12-03T02:56:12.773Z,76.09
2022-12-03T02:57:12.848Z,76.09
2022-12-03T02:58:12.946Z,76.09
2022-12-03T02:59:13.014Z,76.19
2022-12-03T03:00:13.111Z,76.09
2022-12-03T03:01:13.235Z,76.09
2022-12-03T03:02:13.354Z,76.09
2022-12-03T03:03:13.359Z,75.98
2022-12-03T03:04:13.426Z,75.98
2022-12-03T03:05:13.564Z,76.09
2022-12-03T03:06:13.626Z,76.06
2022-12-03T03:07:13.709Z,76.06
2022-12-03T03:08:13.882Z,76.06
2022-12-03T03:09:13.859Z,76.06
2022-12-03T03:10:13.951Z,75.95
2022-12-03T03:11:14.031Z,75.85
2022-12-03T03:12:14.116Z,75.85
2022-12-03T03:13:14.191Z,75.78
2022-12-03T03:14:14.270Z,75.88
2022-12-03T03:15:14.365Z,75.78
2022-12-03T03:16:14.506Z,75.88
2022-12-03T03:17:14.554Z,75.88
2022-12-03T03:18:14.625Z,75.98
2022-12-03T03:19:14.721Z,75.98
2022-12-03T03:20:14.780Z,75.98
2022-12-03T03:21:14.853Z,75.98
2022-12-03T03:22:14.924Z,76.06
2022-12-03T03:23:15.000Z,76.09
2022-12-03T03:24:15.074Z,76.06
2022-12-03T03:25:15.159Z,76.06
2022-12-03T03:26:15.238Z,75.95
2022-12-03T03:27:15.317Z,75.95
2022-12-03T03:28:15.410Z,75.95
2022-12-03T03:29:15.485Z,75.95
2022-12-03T03:30:15.558Z,75.85
2022-12-03T03:31:15.667Z,75.85
2022-12-03T03:32:15.701Z,75.85
2022-12-03T03:33:15.779Z,75.88
2022-12-03T03:34:15.844Z,75.88
2022-12-03T03:35:15.977Z,75.88
2022-12-03T03:36:16.004Z,75.85
2022-12-03T03:37:16.080Z,75.88
2022-12-03T03:38:16.151Z,75.78
2022-12-03T03:39:16.221Z,75.78
2022-12-03T03:40:16.311Z,75.78
2022-12-03T03:41:16.393Z,75.88
2022-12-03T03:42:16.458Z,75.98
2022-12-03T03:43:16.537Z,76.09
2022-12-03T03:44:16.618Z,76.09
2022-12-03T03:45:16.710Z,76.16
2022-12-03T03:46:16.820Z,76.09
2022-12-03T03:47:16.846Z,76.06
2022-12-03T03:48:16.911Z,76.06
2022-12-03T03:49:16.986Z,76.16
2022-12-03T03:50:17.090Z,76.16
2022-12-03T03:51:17.167Z,76.16
2022-12-03T03:52:17.242Z,76.06
2022-12-03T03:53:17.359Z,76.06
2022-12-03T03:54:17.418Z,75.85
2022-12-03T03:55:17.535Z,75.74
2022-12-03T03:56:17.631Z,75.74
2022-12-03T03:57:17.686Z,75.74
2022-12-03T03:58:17.757Z,75.85
2022-12-03T03:59:17.844Z,75.95
2022-12-03T04:00:17.945Z,75.95
2022-12-03T04:01:18.097Z,76.06
2022-12-03T04:02:18.099Z,76.06
2022-12-03T04:03:18.204Z,76.06
2022-12-03T04:04:18.412Z,75.95
2022-12-03T04:05:18.402Z,75.85
2022-12-03T04:06:18.458Z,75.85
2022-12-03T04:07:18.535Z,75.74
2022-12-03T04:08:18.674Z,75.64
2022-12-03T04:09:18.705Z,75.43
2022-12-03T04:10:18.789Z,75.32
2022-12-03T04:11:18.871Z,75.43
2022-12-03T04:12:18.943Z,75.43
2022-12-03T04:13:19.007Z,75.54
2022-12-03T04:14:19.073Z,75.43
2022-12-03T04:15:19.155Z,75.54
2022-12-03T04:16:19.275Z,75.43
2022-12-03T04:17:19.305Z,75.43
2022-12-03T04:18:19.372Z,75.36
2022-12-03T04:19:19.495Z,75.36
2022-12-03T04:20:19.581Z,75.57
2022-12-03T04:21:19.662Z,75.57
2022-12-03T04:22:19.739Z,75.57
2022-12-03T04:23:19.814Z,75.46
2022-12-03T04:24:19.866Z,75.46
2022-12-03T04:25:19.967Z,75.36
2022-12-03T04:26:20.018Z,75.36
2022-12-03T04:27:20.085Z,75.36
2022-12-03T04:28:20.155Z,75.46
2022-12-03T04:29:20.270Z,75.57
2022-12-03T04:30:20.373Z,75.57
2022-12-03T04:31:20.568Z,75.57
2022-12-03T04:32:20.532Z,75.57
2022-12-03T04:33:20.645Z,75.57
2022-12-03T04:34:20.710Z,75.60
2022-12-03T04:35:20.867Z,75.50
2022-12-03T04:36:20.870Z,75.60
2022-12-03T04:37:20.942Z,75.71
2022-12-03T04:38:21.014Z,75.71
2022-12-03T04:39:21.078Z,75.71
2022-12-03T04:40:21.159Z,75.71
2022-12-03T04:41:21.248Z,75.81
2022-12-03T04:42:21.328Z,75.92
2022-12-03T04:43:21.395Z,75.92
2022-12-03T04:44:21.462Z,75.92
2022-12-03T04:45:21.596Z,75.92
2022-12-03T04:46:21.740Z,75.92
2022-12-03T04:47:21.763Z,75.92
2022-12-03T04:48:21.838Z,75.92
2022-12-03T04:49:21.916Z,75.88
2022-12-03T04:50:22.004Z,75.98
2022-12-03T04:51:22.087Z,75.88
2022-12-03T04:52:22.167Z,75.81
2022-12-03T04:53:22.246Z,75.67
2022-12-03T04:54:22.323Z,75.67
2022-12-03T04:55:22.423Z,75.60
2022-12-03T04:56:22.480Z,75.60
2022-12-03T04:57:22.555Z,75.60
2022-12-03T04:58:22.628Z,75.60
2022-12-03T04:59:22.738Z,75.71
2022-12-03T05:00:22.825Z,75.71
2022-12-03T05:01:23.029Z,75.71
2022-12-03T05:02:23.051Z,75.81
2022-12-03T05:03:23.064Z,75.81
2022-12-03T05:04:23.157Z,75.92
2022-12-03T05:05:23.266Z,76.02
2022-12-03T05:06:23.339Z,76.02
2022-12-03T05:07:23.421Z,75.92
2022-12-03T05:08:23.489Z,75.92
2022-12-03T05:09:23.561Z,76.02
2022-12-03T05:10:23.667Z,76.02
2022-12-03T05:11:23.754Z,76.02
2022-12-03T05:12:23.816Z,76.02
2022-12-03T05:13:23.893Z,76.02
2022-12-03T05:14:23.970Z,76.02
2022-12-03T05:15:24.091Z,76.02
2022-12-03T05:16:24.243Z,76.02
2022-12-03T05:17:24.263Z,76.02
2022-12-03T05:18:24.326Z,75.92
2022-12-03T05:19:24.445Z,75.81
2022-12-03T05:20:24.523Z,75.92
2022-12-03T05:21:24.601Z,75.92
2022-12-03T05:22:24.676Z,75.92
2022-12-03T05:23:24.756Z,75.92
2022-12-03T05:24:24.846Z,75.92
2022-12-03T05:25:24.946Z,75.92
2022-12-03T05:26:25.012Z,75.92
2022-12-03T05:27:25.089Z,75.92
2022-12-03T05:28:25.152Z,75.92
2022-12-03T05:29:25.235Z,75.92
2022-12-03T05:30:25.378Z,76.02
2022-12-03T05:31:25.531Z,76.02
2022-12-03T05:32:25.481Z,76.12
2022-12-03T05:33:25.556Z,76.12
2022-12-03T05:34:25.625Z,76.23
2022-12-03T05:35:25.742Z,76.23
2022-12-03T05:36:25.768Z,76.33
2022-12-03T05:37:25.845Z,76.33
2022-12-03T05:38:25.947Z,76.33
2022-12-03T05:39:26.014Z,76.19
2022-12-03T05:40:26.097Z,76.29
2022-12-03T05:41:26.185Z,76.19
2022-12-03T05:42:26.260Z,76.09
2022-12-03T05:43:26.335Z,75.98
2022-12-03T05:44:26.414Z,75.98
2022-12-03T05:45:26.508Z,75.98
2022-12-03T05:46:26.656Z,75.98
2022-12-03T05:47:26.662Z,75.98
2022-12-03T05:48:26.725Z,75.98
2022-12-03T05:49:26.802Z,75.98
2022-12-03T05:50:26.900Z,75.92
2022-12-03T05:51:26.987Z,75.92
2022-12-03T05:52:27.059Z,75.88
2022-12-03T05:53:27.136Z,75.81
2022-12-03T05:54:27.211Z,75.81
2022-12-03T05:55:27.292Z,75.81
2022-12-03T05:56:27.369Z,75.92
2022-12-03T05:57:27.438Z,75.92
2022-12-03T05:58:27.513Z,75.92
2022-12-03T05:59:27.597Z,75.92
2022-12-03T06:00:27.686Z,75.92
2022-12-03T06:01:27.778Z,75.92
2022-12-03T06:02:27.970Z,75.92
2022-12-03T06:03:28.069Z,76.02
2022-12-03T06:04:27.988Z,76.02
2022-12-03T06:05:28.086Z,76.12
2022-12-03T06:06:28.105Z,76.23
2022-12-03T06:07:28.277Z,76.33
2022-12-03T06:08:28.310Z,76.33
2022-12-03T06:09:28.390Z,76.43
2022-12-03T06:10:28.479Z,76.43
2022-12-03T06:11:28.559Z,76.33
2022-12-03T06:12:28.609Z,76.12
2022-12-03T06:13:28.681Z,76.09
2022-12-03T06:14:28.761Z,76.09
2022-12-03T06:15:28.868Z,76.23
2022-12-03T06:16:28.978Z,76.29
2022-12-03T06:17:28.985Z,76.29
2022-12-03T06:18:29.072Z,76.29
2022-12-03T06:19:29.146Z,76.29
2022-12-03T06:20:29.243Z,76.29
2022-12-03T06:21:29.311Z,76.19
2022-12-03T06:22:29.396Z,76.09
2022-12-03T06:23:29.485Z,75.98
2022-12-03T06:24:29.566Z,75.88
2022-12-03T06:25:29.660Z,75.98
2022-12-03T06:26:29.756Z,75.88
2022-12-03T06:27:29.825Z,75.88
2022-12-03T06:28:29.908Z,75.92
2022-12-03T06:29:29.989Z,75.92
2022-12-03T06:30:30.089Z,75.92
2022-12-03T06:31:30.357Z,75.92
2022-12-03T06:32:30.238Z,76.02
2022-12-03T06:33:30.321Z,76.02
2022-12-03T06:34:30.399Z,75.98
2022-12-03T06:35:30.539Z,75.98
2022-12-03T06:36:30.622Z,76.02
2022-12-03T06:37:30.653Z,75.88
2022-12-03T06:38:30.724Z,75.88
2022-12-03T06:39:30.790Z,75.92
2022-12-03T06:40:30.882Z,75.92
2022-12-03T06:41:30.965Z,75.92
2022-12-03T06:42:31.052Z,76.02
2022-12-03T06:43:31.125Z,75.88
2022-12-03T06:44:31.245Z,75.88
2022-12-03T06:45:31.344Z,75.98
2022-12-03T06:46:31.536Z,76.09
2022-12-03T06:47:31.507Z,76.09
2022-12-03T06:48:31.590Z,76.09
2022-12-03T06:49:31.663Z,75.98
2022-12-03T06:50:31.750Z,75.98
2022-12-03T06:51:31.844Z,75.88
2022-12-03T06:52:31.913Z,75.46
2022-12-03T06:53:32.002Z,75.26
2022-12-03T06:54:32.091Z,75.29
2022-12-03T06:55:32.187Z,75.40
2022-12-03T06:56:36.855Z,75.60
2022-12-03T06:57:32.333Z,75.60
2022-12-03T06:58:32.402Z,75.71
2022-12-03T06:59:32.490Z,75.81
2022-12-03T07:00:32.625Z,75.81
2022-12-03T07:01:32.714Z,75.81
2022-12-03T07:02:32.864Z,75.81
2022-12-03T07:03:32.842Z,75.71
2022-12-03T07:04:33.001Z,75.60
2022-12-03T07:05:33.068Z,75.71
2022-12-03T07:06:33.096Z,75.71
2022-12-03T07:07:33.227Z,75.81
2022-12-03T07:08:33.303Z,75.92
2022-12-03T07:09:33.338Z,75.92
2022-12-03T07:10:33.446Z,75.92
2022-12-03T07:11:33.483Z,75.81
2022-12-03T07:12:33.644Z,75.81
2022-12-03T07:13:33.629Z,75.81
2022-12-03T07:14:33.716Z,75.71
2022-12-03T07:15:33.807Z,75.60
2022-12-03T07:16:33.983Z,75.60
2022-12-03T07:17:33.974Z,75.60
2022-12-03T07:18:34.054Z,75.60
2022-12-03T07:19:34.124Z,75.74
2022-12-03T07:20:34.230Z,75.74
2022-12-03T07:21:34.260Z,75.85
2022-12-03T07:22:34.359Z,75.95
2022-12-03T07:23:34.427Z,76.06
2022-12-03T07:24:34.509Z,76.06
2022-12-03T07:25:34.590Z,76.16
2022-12-03T07:26:34.630Z,76.12
2022-12-03T07:27:34.704Z,76.12
2022-12-03T07:28:34.777Z,76.12
2022-12-03T07:29:34.858Z,76.12
2022-12-03T07:30:34.994Z,76.12
2022-12-03T07:31:35.135Z,76.02
2022-12-03T07:32:35.115Z,75.92
2022-12-03T07:33:35.182Z,75.81
2022-12-03T07:34:35.821Z,75.71
2022-12-03T07:35:35.362Z,75.74
2022-12-03T07:36:35.446Z,75.74
2022-12-03T07:37:35.513Z,75.74
2022-12-03T07:38:35.599Z,75.74
2022-12-03T07:39:35.670Z,75.85
2022-12-03T07:40:35.768Z,75.95
2022-12-03T07:41:35.881Z,76.06
2022-12-03T07:42:35.915Z,76.16
2022-12-03T07:43:35.985Z,76.16
2022-12-03T07:44:36.078Z,76.16
2022-12-03T07:45:36.165Z,76.26
2022-12-03T07:46:36.274Z,76.26
2022-12-03T07:47:36.296Z,76.26
2022-12-03T07:48:36.372Z,76.16
2022-12-03T07:49:36.454Z,76.16
2022-12-03T07:50:36.537Z,76.16
2022-12-03T07:51:36.604Z,76.16
2022-12-03T07:52:36.708Z,76.16
2022-12-03T07:53:36.753Z,76.16
2022-12-03T07:54:36.833Z,76.12
2022-12-03T07:55:36.926Z,76.12
2022-12-03T07:56:37.018Z,76.23
2022-12-03T07:57:37.098Z,76.23
2022-12-03T07:58:37.173Z,76.23
2022-12-03T07:59:37.246Z,76.23
2022-12-03T08:00:37.394Z,76.23
2022-12-03T08:01:37.620Z,76.33
2022-12-03T08:02:37.554Z,76.23
2022-12-03T08:03:37.562Z,76.33
2022-12-03T08:04:37.632Z,76.33
2022-12-03T08:05:37.716Z,76.33
2022-12-03T08:06:37.815Z,76.23
2022-12-03T08:07:37.952Z,76.23
2022-12-03T08:08:37.999Z,76.23
2022-12-03T08:09:38.067Z,76.23
2022-12-03T08:10:38.174Z,76.23
2022-12-03T08:11:38.238Z,76.23
2022-12-03T08:12:38.349Z,76.33
2022-12-03T08:13:38.427Z,76.33
2022-12-03T08:14:38.519Z,76.43
2022-12-03T08:15:39.697Z,76.43
2022-12-03T08:16:38.808Z,76.43
2022-12-03T08:17:38.745Z,76.40
2022-12-03T08:18:38.820Z,76.51
2022-12-03T08:19:38.892Z,76.51
2022-12-03T08:20:38.986Z,76.51
2022-12-03T08:21:39.051Z,76.61
2022-12-03T08:22:39.161Z,76.61
2022-12-03T08:23:39.233Z,76.61
2022-12-03T08:24:39.315Z,76.61
2022-12-03T08:25:39.422Z,76.51
2022-12-03T08:26:39.454Z,76.51
2022-12-03T08:27:39.581Z,76.51
2022-12-03T08:28:39.628Z,76.40
2022-12-03T08:29:39.707Z,76.29
2022-12-03T08:30:39.807Z,76.29
2022-12-03T08:31:39.906Z,76.19
2022-12-03T08:32:39.910Z,76.19
2022-12-03T08:33:40.055Z,76.09
2022-12-03T08:34:40.065Z,76.09
2022-12-03T08:35:40.176Z,76.09
2022-12-03T08:36:40.211Z,76.09
2022-12-03T08:37:40.290Z,75.98
2022-12-03T08:38:40.360Z,75.98
2022-12-03T08:39:40.600Z,76.09
2022-12-03T08:40:40.547Z,76.09
2022-12-03T08:41:40.568Z,76.19
2022-12-03T08:42:40.652Z,76.29
2022-12-03T08:43:40.724Z,76.29
2022-12-03T08:44:50.405Z,76.29
2022-12-03T08:45:41.017Z,76.19
2022-12-03T08:46:40.989Z,76.09
2022-12-03T08:47:41.115Z,76.09
2022-12-03T08:48:47.065Z,76.12
2022-12-03T08:49:41.221Z,76.02
2022-12-03T08:50:41.289Z,76.02
2022-12-03T08:51:41.346Z,76.12
2022-12-03T08:52:41.453Z,76.12
2022-12-03T08:53:41.522Z,76.12
2022-12-03T08:54:41.582Z,76.23
2022-12-03T08:55:41.662Z,76.23
2022-12-03T08:56:41.767Z,76.23
2022-12-03T08:57:41.823Z,76.23
2022-12-03T08:58:41.899Z,76.12
2022-12-03T08:59:45.495Z,76.12
2022-12-03T09:00:42.172Z,76.12
2022-12-03T09:01:42.360Z,76.12
2022-12-03T09:02:42.265Z,76.12
2022-12-03T09:03:42.405Z,76.12
2022-12-03T09:04:42.527Z,76.23
2022-12-03T09:05:42.554Z,76.23
2022-12-03T09:06:42.640Z,76.12
2022-12-03T09:07:42.789Z,76.12
2022-12-03T09:08:42.765Z,76.02
2022-12-03T09:09:42.818Z,76.12
2022-12-03T09:10:42.953Z,76.12
2022-12-03T09:11:43.028Z,76.23
2022-12-03T09:12:43.124Z,76.33
2022-12-03T09:13:43.202Z,76.33
2022-12-03T09:14:43.276Z,76.43
2022-12-03T09:15:44.348Z,76.43
2022-12-03T09:16:43.491Z,76.43
2022-12-03T09:17:43.507Z,76.43
2022-12-03T09:18:43.594Z,76.33
2022-12-03T09:19:46.048Z,76.33
2022-12-03T09:20:43.837Z,76.23
2022-12-03T09:21:43.848Z,76.23
2022-12-03T09:22:43.940Z,76.33
2022-12-03T09:23:44.038Z,76.43
2022-12-03T09:24:44.127Z,76.54
2022-12-03T09:25:44.238Z,76.54
2022-12-03T09:26:44.312Z,76.64
2022-12-03T09:27:44.330Z,76.54
2022-12-03T09:28:44.453Z,76.43
2022-12-03T09:29:44.476Z,76.33
2022-12-03T09:30:44.626Z,76.33
2022-12-03T09:31:44.678Z,76.33
2022-12-03T09:32:44.737Z,76.43
2022-12-03T09:33:44.812Z,76.54
2022-12-03T09:34:44.897Z,76.54
2022-12-03T09:35:45.018Z,76.54
2022-12-03T09:36:45.058Z,76.54
2022-12-03T09:37:45.185Z,76.54
2022-12-03T09:38:47.808Z,76.54
2022-12-03T09:39:45.282Z,76.64
2022-12-03T09:40:45.423Z,76.75
2022-12-03T09:41:45.446Z,76.75
2022-12-03T09:42:45.533Z,76.72
2022-12-03T09:44:45.713Z,76.72
2022-12-03T09:45:45.864Z,76.61
2022-12-03T09:46:45.955Z,76.51
2022-12-03T09:47:45.984Z,76.51
2022-12-03T09:48:46.080Z,76.61
2022-12-03T09:49:46.136Z,76.61
2022-12-03T09:50:46.285Z,76.72
2022-12-03T09:51:46.314Z,76.72
2022-12-03T09:52:46.389Z,76.51
2022-12-03T09:53:46.456Z,76.40
2022-12-03T09:54:47.675Z,76.40
2022-12-03T09:55:46.602Z,76.40
2022-12-03T09:56:46.673Z,76.51
2022-12-03T09:57:46.750Z,76.51
2022-12-03T09:58:46.814Z,76.61
2022-12-03T09:59:46.874Z,76.61
2022-12-03T10:00:47.047Z,76.72
2022-12-03T10:01:47.173Z,76.72
2022-12-03T10:02:47.175Z,76.82
2022-12-03T10:03:47.247Z,76.72
2022-12-03T10:04:47.399Z,76.72
2022-12-03T10:05:48.343Z,76.72
2022-12-03T10:06:47.467Z,76.72
2022-12-03T10:07:47.618Z,76.72
2022-12-03T10:08:47.643Z,76.61
2022-12-03T10:09:47.774Z,76.61
2022-12-03T10:10:47.871Z,76.61
2022-12-03T10:11:47.904Z,76.51
2022-12-03T10:12:48.020Z,76.51
2022-12-03T10:13:48.013Z,76.51
2022-12-03T10:14:48.169Z,76.51
2022-12-03T10:15:48.225Z,76.51
2022-12-03T10:16:48.354Z,76.51
2022-12-03T10:17:48.348Z,76.61
2022-12-03T10:18:48.427Z,76.51
2022-12-03T10:19:48.512Z,76.51
2022-12-03T10:20:48.606Z,76.51
2022-12-03T10:21:48.680Z,76.61
2022-12-03T10:22:48.882Z,76.72
2022-12-03T10:23:54.889Z,76.72
2022-12-03T10:24:48.977Z,76.82
2022-12-03T10:25:49.059Z,76.82
2022-12-03T10:26:49.174Z,76.92
2022-12-03T10:27:49.198Z,76.92
2022-12-03T10:28:49.284Z,76.92
2022-12-03T10:29:49.349Z,76.92
2022-12-03T10:30:49.542Z,76.92
2022-12-03T10:31:49.596Z,77.03
2022-12-03T10:32:49.628Z,76.89
2022-12-03T10:33:49.718Z,76.89
2022-12-03T10:34:49.795Z,76.68
2022-12-03T10:35:49.899Z,76.68
2022-12-03T10:36:49.943Z,76.68
2022-12-03T10:37:50.062Z,76.57
2022-12-03T10:38:50.124Z,76.57
2022-12-03T10:39:55.560Z,76.57
2022-12-03T10:40:50.327Z,76.57
2022-12-03T10:41:50.368Z,76.57
2022-12-03T10:42:50.425Z,76.47
2022-12-03T10:43:50.496Z,76.57
2022-12-03T10:44:50.702Z,76.57
2022-12-03T10:45:50.791Z,76.57
2022-12-03T10:46:50.868Z,76.57
2022-12-03T10:47:50.925Z,76.57
2022-12-03T10:48:50.943Z,76.57
2022-12-03T10:49:51.080Z,76.47
2022-12-03T10:50:51.172Z,76.57
2022-12-03T10:51:51.216Z,76.57
2022-12-03T10:52:51.303Z,76.57
2022-12-03T10:53:51.389Z,76.47
2022-12-03T10:54:51.961Z,76.47
2022-12-03T10:55:51.739Z,76.37
2022-12-03T10:56:51.658Z,76.37
2022-12-03T10:57:51.807Z,76.37
2022-12-03T10:58:51.861Z,76.26
2022-12-03T10:59:51.945Z,76.26
2022-12-03T11:00:52.042Z,76.26
2022-12-03T11:01:52.215Z,76.19
2022-12-03T11:02:56.790Z,76.19
2022-12-03T11:03:52.312Z,76.19
2022-12-03T11:04:52.679Z,76.29
2022-12-03T11:05:52.407Z,76.29
2022-12-03T11:06:52.488Z,76.29
2022-12-03T11:07:52.608Z,76.40
2022-12-03T11:08:57.527Z,76.51
2022-12-03T11:09:52.792Z,76.51
2022-12-03T11:10:52.840Z,76.61
2022-12-03T11:11:52.949Z,76.57
2022-12-03T11:12:52.989Z,76.68
2022-12-03T11:13:53.079Z,76.68
2022-12-03T11:14:53.563Z,76.57
2022-12-03T11:15:53.426Z,76.68
2022-12-03T11:16:53.313Z,76.68
2022-12-03T11:17:53.406Z,76.68
2022-12-03T11:18:53.497Z,76.68
2022-12-03T11:19:53.572Z,76.68
2022-12-03T11:20:53.667Z,76.57
2022-12-03T11:21:53.799Z,76.57
2022-12-03T11:22:53.876Z,76.47
2022-12-03T11:23:53.924Z,76.47
2022-12-03T11:24:54.334Z,76.47
2022-12-03T11:25:54.131Z,76.37
2022-12-03T11:26:54.211Z,76.37
2022-12-03T11:27:54.302Z,76.37
2022-12-03T11:28:54.332Z,76.37
2022-12-03T11:29:54.431Z,76.37
2022-12-03T11:30:54.585Z,76.37
2022-12-03T11:31:54.606Z,76.37
2022-12-03T11:32:54.704Z,76.37
2022-12-03T11:33:54.787Z,76.37
2022-12-03T11:34:55.022Z,76.37
2022-12-03T11:35:55.011Z,76.37
2022-12-03T11:37:02.009Z,76.47
2022-12-03T11:37:55.155Z,76.47
2022-12-03T11:38:55.232Z,76.47
2022-12-03T11:39:55.514Z,76.47
2022-12-03T11:40:55.391Z,76.47
2022-12-03T11:41:55.474Z,76.47
2022-12-03T11:42:55.617Z,76.57
2022-12-03T11:43:55.648Z,76.57
2022-12-03T11:44:55.690Z,76.68
2022-12-03T11:46:01.061Z,76.68
2022-12-03T11:46:55.969Z,76.68
2022-12-03T11:47:56.011Z,76.57
2022-12-03T11:48:56.047Z,76.57
2022-12-03T11:49:56.397Z,76.68
2022-12-03T11:50:56.196Z,76.68
2022-12-03T11:51:56.325Z,76.68
2022-12-03T11:52:56.347Z,76.68
2022-12-03T11:53:56.491Z,76.68
2022-12-03T11:54:56.523Z,76.68
2022-12-03T11:56:01.366Z,76.68
2022-12-03T11:56:56.707Z,76.57
2022-12-03T11:57:56.804Z,76.47
2022-12-03T11:58:56.880Z,76.47
2022-12-03T11:59:57.030Z,76.47
2022-12-03T12:00:57.038Z,76.47
2022-12-03T12:01:57.122Z,76.47
2022-12-03T12:02:57.261Z,76.47
2022-12-03T12:03:57.476Z,76.47
2022-12-03T12:04:57.406Z,76.57
2022-12-03T12:05:57.502Z,76.57
2022-12-03T12:06:57.559Z,76.57
2022-12-03T12:07:57.793Z,76.68
2022-12-03T12:08:57.785Z,76.68
2022-12-03T12:09:58.364Z,76.68
2022-12-03T12:10:57.962Z,76.68
2022-12-03T12:11:58.022Z,76.78
2022-12-03T12:12:58.148Z,76.78
2022-12-03T12:13:58.180Z,76.78
2022-12-03T12:14:58.248Z,76.78
2022-12-03T12:15:58.396Z,76.78
2022-12-03T12:16:58.475Z,76.78
2022-12-03T12:17:58.551Z,76.89
2022-12-03T12:18:58.565Z,76.89
2022-12-03T12:19:59.136Z,76.89
2022-12-03T12:20:58.732Z,76.85
2022-12-03T12:21:58.815Z,76.85
2022-12-03T12:22:58.906Z,76.85
2022-12-03T12:23:58.999Z,76.75
2022-12-03T12:24:59.071Z,76.75
2022-12-03T12:25:59.221Z,76.75
2022-12-03T12:26:59.217Z,76.75
2022-12-03T12:27:59.387Z,76.64
2022-12-03T12:28:59.406Z,76.64
2022-12-03T12:29:59.467Z,76.64
2022-12-03T12:30:59.696Z,76.64
2022-12-03T12:31:59.667Z,76.75
2022-12-03T12:32:59.699Z,76.75
2022-12-03T12:33:59.791Z,76.75
2022-12-03T12:34:59.882Z,76.85
2022-12-03T12:36:00.011Z,76.85
2022-12-03T12:37:00.066Z,76.85
2022-12-03T12:38:00.703Z,76.85
2022-12-03T12:39:00.273Z,76.85
2022-12-03T12:40:00.311Z,76.95
2022-12-03T12:41:00.482Z,76.95
2022-12-03T12:42:00.474Z,76.95
2022-12-03T12:43:03.022Z,77.06
2022-12-03T12:44:00.635Z,77.06
2022-12-03T12:45:00.715Z,77.06
2022-12-03T12:46:18.693Z,77.06
2022-12-03T12:47:00.909Z,77.06
2022-12-03T12:48:00.954Z,76.95
2022-12-03T12:49:01.019Z,76.95
2022-12-03T12:50:01.160Z,76.95
2022-12-03T12:51:01.189Z,76.95
2022-12-03T12:52:01.324Z,76.95
2022-12-03T12:53:01.366Z,76.95
2022-12-03T12:54:01.434Z,76.95
2022-12-03T12:55:04.888Z,76.95
2022-12-03T12:56:01.678Z,76.95